Woodland, CA (95695)

3:20 PM PDT on August 29, 2014 (GMT -0700)
West Woodland | Change Station
CLOSE
Current Station
Personal Weather Station
Location: Woodland, CA
Elevation: 72 ft
Nearby Weather Stations

Elev 72 ft 38.67 °N, 121.80 °W | Updated 57 seconds ago

Partly Cloudy
Partly Cloudy
87.0 °F
Feels Like 87 °F
N
1.7
Wind Variable Wind from East
Gusts 5.4 mph

Today
High -- | Low -- °F
--% Chance of Precip.
Yesterday
High -- | Low -- °F
Precip. -- in
6:33 AM 7:41 PM
Waxing Crescent, 17% visible
Pressure 29.84 in
Visibility 10.0 miles
Clouds Clear
Heat Index 87 °F
Dew Point 61 °F
Humidity 42%
Rainfall 0.00 in
Snow Depth Not available.
UV 0.0 out of 12
Pollen 8.60 out of 12
Ozone Good
PM2.5 Moderate
Flu Activity Not available.
METAR KEDU 292215Z AUTO 00000KT 10SM CLR 30/13 A2984 RMK AO1

More Conditions Fewer Conditions

Pressure 29.84 in
Visibility 10.0 miles
Clouds Clear
Heat Index 87 °F
Dew Point 61 °F
Humidity 42%
Rainfall 0.00 in
Snow Depth Not available.
UV 0.0 out of 12
Pollen 8.60 out of 12
Ozone Good
PM2.5 Moderate
Flu Activity Not available.
METAR KEDU 292215Z AUTO 00000KT 10SM CLR 30/13 A2984 RMK AO1

More Conditions Fewer Conditions

10-Day Weather Forecast

Almanac

Astronomy

Aug. 29, 2014 Rise Set
Actual Time 6:33 AM PDT 7:41 PM PDT
Civil Twilight 6:06 AM PDT 8:08 PM PDT
Nautical Twilight 5:33 AM PDT 8:41 PM PDT
Astronomical Twilight 4:59 AM PDT 9:15 PM PDT
Moon 10:25 AM PDT 9:45 PM PDT
Length of Visible Light 14h 02m
Length of Day
13h 07m
Tomorrow will be 2m 23s shorter.
Waxing Crescent, 17% of the Moon is Illuminated
Today
Waxing Crescent
Sep 2
First Quarter
Sep 8
Full
Sep 15
Last Quarter
Sep 24
New

Today's Extremes

State Highs State Lows

Community

WunderPhotos

Upload Photos

1,748,360 photos uploaded!

Nearby

Air Quality

  Air Quality AQ Index Pollutant
Yesterday Moderate
OZONE
Yesterday Good
PM2.5
Current Moderate
PM2.5
Current Good
OZONE
Friday Good
OZONE
Saturday Good
OZONE
Sunday Good
OZONE
Monday Moderate
OZONE
Tuesday Good
OZONE
Wednesday Good
OZONE

Snow Depth

Station Depth Elevation
CSS Lab 1 in 6900 ft
Fallen Leaf 0 in 6300 ft
Monitor Pass 0 in 8350 ft
Leavitt Meadows 0 in 7200 ft
Summit Meadow 0 in 9122 ft

Earthquake Activity

City Distance Mag. Time & Date
The Geysers, California 56 miles 2.7 2:53 PM PDT
2014-08-29
Ridgemark, California 140 miles 3.0 2:44 PM PDT
2014-08-29
Napa, California 42 miles 2.6 11:57 AM PDT
2014-08-27
The Geysers, California 56 miles 2.6 7:42 AM PDT
2014-08-27
Minimum magnitude displayed is 2.5.

Coastal Water Temperatures

Place Temperature
No Stations Reporting

Nearby Weather Stations